Time;durP1;ratioP1;P1;durP2;ratioP2;P2;SDS_P1;SDS_P2;PMS_P1;PMS_P2;Temp;Humidity;BMP_temperature;BMP_pressure;BME280_temperature;BME280_humidity;BME280_pressure;Samples;Min_cycle;Max_cycle;Signal;HPM_P1;HPM_P2
2022/02/20 00:00:32;;;;;;;7.90;1.70;;;;;;;4.93;90.78;100937.31;5057394;28;20076;-35
2022/02/20 00:02:57;;;;;;;6.73;1.37;;;;;;;4.93;91.53;100951.56;5056597;28;20025;-36
2022/02/20 00:05:22;;;;;;;5.67;0.97;;;;;;;4.91;91.29;100957.09;5056573;28;20040;-36
2022/02/20 00:07:48;;;;;;;7.67;1.63;;;;;;;4.82;91.62;100952.88;5056598;28;20032;-36
2022/02/20 00:10:13;;;;;;;8.03;1.53;;;;;;;4.86;91.99;100970.22;5056570;28;20028;-35
2022/02/20 00:12:38;;;;;;;5.83;1.60;;;;;;;4.87;91.41;100979.94;5056755;28;20029;-35
2022/02/20 00:15:05;;;;;;;9.13;1.80;;;;;;;4.84;91.89;100996.41;5056680;28;20052;-36
2022/02/20 00:17:30;;;;;;;7.07;1.40;;;;;;;4.86;91.91;101010.41;5056414;28;20074;-36
2022/02/20 00:19:55;;;;;;;11.50;1.90;;;;;;;4.84;92.13;101007.13;5056933;28;20449;-36
2022/02/20 00:22:20;;;;;;;5.40;2.00;;;;;;;4.78;91.90;101005.19;5056613;28;20086;-35
2022/02/20 00:24:46;;;;;;;8.03;1.77;;;;;;;4.75;92.53;101013.59;5057174;28;20053;-36
2022/02/20 00:27:11;;;;;;;6.70;1.63;;;;;;;4.82;92.23;101030.56;5056190;28;20033;-35
2022/02/20 00:29:37;;;;;;;5.97;1.90;;;;;;;4.77;92.05;101027.63;5055351;28;20071;-35
2022/02/20 00:32:04;;;;;;;7.72;1.65;;;;;;;4.81;92.65;101055.72;5056423;28;20108;-35
2022/02/20 00:34:29;;;;;;;6.90;1.38;;;;;;;4.83;92.43;101067.09;5056122;28;20025;-35
2022/02/20 00:36:54;;;;;;;8.32;1.70;;;;;;;4.82;93.20;101073.44;5056026;28;20021;-35
2022/02/20 00:39:20;;;;;;;7.57;1.50;;;;;;;4.82;92.96;101086.00;5056863;28;20033;-35
2022/02/20 00:41:45;;;;;;;7.40;1.60;;;;;;;4.72;93.57;101064.88;5054950;28;20373;-35
2022/02/20 00:44:10;;;;;;;5.37;1.60;;;;;;;4.74;93.88;101073.56;5056029;28;20194;-36
2022/02/20 00:46:36;;;;;;;5.17;1.53;;;;;;;4.63;93.34;101069.50;5055966;28;20489;-35
2022/02/20 00:49:01;;;;;;;4.67;1.50;;;;;;;4.78;93.84;101101.66;5055896;28;20531;-36
2022/02/20 00:51:26;;;;;;;5.90;1.47;;;;;;;4.76;94.35;101101.00;5055770;28;20373;-36
2022/02/20 00:53:52;;;;;;;5.57;1.70;;;;;;;4.75;94.02;101115.41;5055783;28;20166;-36
2022/02/20 00:56:17;;;;;;;6.07;1.43;;;;;;;4.73;94.54;101114.75;5056255;28;20116;-36
2022/02/20 00:58:43;;;;;;;7.47;1.93;;;;;;;4.73;93.41;101111.25;5055601;28;20017;-36
2022/02/20 01:01:08;;;;;;;7.47;1.90;;;;;;;4.69;93.08;101116.16;5055497;28;20041;-36
2022/02/20 01:03:34;;;;;;;7.75;2.40;;;;;;;4.71;93.55;101121.31;5056118;28;20025;-36
2022/02/20 01:05:59;;;;;;;3.93;1.00;;;;;;;4.67;92.94;101125.38;5055286;28;20473;-36
2022/02/20 01:08:25;;;;;;;4.77;1.27;;;;;;;4.65;93.34;101129.09;5055524;28;20300;-35
2022/02/20 01:10:50;;;;;;;2.83;0.80;;;;;;;4.64;92.36;101118.56;5056227;28;20021;-36
2022/02/20 01:13:15;;;;;;;4.60;0.80;;;;;;;4.64;92.67;101130.13;5055599;28;20021;-36
2022/02/20 01:15:41;;;;;;;5.00;1.67;;;;;;;4.63;92.58;101128.44;5054347;28;20037;-37
2022/02/20 01:18:06;;;;;;;5.33;1.00;;;;;;;4.64;92.36;101145.34;5055591;28;20465;-35
2022/02/20 01:20:32;;;;;;;6.22;1.13;;;;;;;4.60;92.82;101130.66;5055512;28;20719;-36
2022/02/20 01:22:57;;;;;;;6.00;1.20;;;;;;;4.59;93.00;101142.41;5055267;28;20036;-36
2022/02/20 01:25:22;;;;;;;3.23;1.00;;;;;;;4.53;93.18;101132.41;5055708;28;20057;-35
2022/02/20 01:27:48;;;;;;;5.97;1.00;;;;;;;4.43;92.99;101121.13;5055446;28;20024;-36
2022/02/20 01:30:13;;;;;;;7.90;1.60;;;;;;;4.59;93.32;101145.91;5054702;28;20025;-36
2022/02/20 01:32:38;;;;;;;5.87;1.10;;;;;;;4.61;93.13;101140.34;5055120;28;20108;-36
2022/02/20 01:35:05;;;;;;;7.20;1.50;;;;;;;4.63;92.94;101154.38;5055076;28;20028;-36
2022/02/20 01:37:31;;;;;;;5.95;1.27;;;;;;;4.62;92.79;101156.22;5054611;28;20036;-36
2022/02/20 01:39:56;;;;;;;4.80;1.10;;;;;;;4.60;91.67;101168.16;5055700;28;20025;-36
2022/02/20 01:42:21;;;;;;;3.20;1.00;;;;;;;4.63;91.60;101165.09;5054858;28;20166;-37
2022/02/20 01:44:47;;;;;;;5.40;1.33;;;;;;;4.56;91.09;101161.50;5055129;28;20029;-36
2022/02/20 01:47:14;;;;;;;4.90;1.13;;;;;;;4.64;91.79;101172.16;5054728;28;20032;-36
2022/02/20 01:49:41;;;;;;;3.53;1.10;;;;;;;4.62;91.59;101164.28;5054613;28;20555;-36
2022/02/20 01:52:06;;;;;;;;;;;;;;;4.68;92.09;101164.53;5053825;28;20025;-35
2022/02/20 01:54:32;;;;;;;6.07;1.40;;;;;;;4.57;92.05;101163.16;5054828;28;19913;-35
2022/02/20 01:56:57;;;;;;;10.20;1.80;;;;;;;4.58;92.06;101171.00;5054544;28;20024;-35
2022/02/20 01:59:24;;;;;;;5.93;1.42;;;;;;;4.59;92.71;101177.22;5054598;28;20079;-35
2022/02/20 02:01:50;;;;;;;4.13;1.38;;;;;;;4.50;92.82;101175.63;5054506;28;20108;-36
2022/02/20 02:04:16;;;;;;;3.95;1.38;;;;;;;4.65;92.99;101190.69;5054346;28;20033;-36
2022/02/20 02:06:41;;;;;;;4.88;0.95;;;;;;;4.64;93.23;101189.03;5053987;28;20032;-35
2022/02/20 02:09:07;;;;;;;5.80;1.37;;;;;;;4.67;93.37;101182.47;5053317;28;20051;-35
2022/02/20 02:11:33;;;;;;;7.37;1.70;;;;;;;4.55;93.93;101170.56;5052853;28;20120;-36
2022/02/20 02:13:58;;;;;;;6.40;1.55;;;;;;;4.62;92.95;101174.97;5053595;28;20107;-36
2022/02/20 02:16:24;;;;;;;6.50;1.37;;;;;;;4.63;92.42;101178.50;5054480;28;20528;-36
2022/02/20 02:18:50;;;;;;;4.78;1.45;;;;;;;4.64;92.66;101190.91;5054162;28;20358;-36
2022/02/20 02:21:15;;;;;;;6.93;2.27;;;;;;;4.62;92.11;101191.06;5053772;28;20033;-36
2022/02/20 02:23:40;;;;;;;4.20;1.17;;;;;;;4.64;92.31;101183.69;5054101;28;20288;-35
2022/02/20 02:26:06;;;;;;;4.53;1.30;;;;;;;4.44;91.99;101150.44;5054285;28;20151;-35
2022/02/20 02:28:34;;;;;;;5.13;1.70;;;;;;;4.61;91.29;101185.91;5054193;28;20029;-36
2022/02/20 02:31:04;;;;;;;6.50;1.30;;;;;;;4.59;91.45;101169.19;5053654;28;20063;-36
2022/02/20 02:33:34;;;;;;;4.00;1.30;;;;;;;4.55;90.79;101174.06;5054108;28;20083;-36
2022/02/20 02:36:01;;;;;;;7.85;1.48;;;;;;;4.58;90.37;101183.56;5054686;28;20052;-35
2022/02/20 02:38:27;;;;;;;4.13;0.90;;;;;;;4.60;90.48;101181.56;5053486;28;20060;-35
2022/02/20 02:40:59;;;;;;;6.13;1.20;;;;;;;4.59;90.91;101182.59;5054322;28;20389;-36
2022/02/20 02:43:25;;;;;;;5.30;1.13;;;;;;;4.59;90.69;101171.88;5052739;28;20035;-36
2022/02/20 02:45:50;;;;;;;5.03;1.10;;;;;;;4.56;91.37;101191.78;5053757;28;20029;-36
2022/02/20 02:48:16;;;;;;;5.67;1.57;;;;;;;4.58;90.93;101186.25;5053667;28;20029;-36
2022/02/20 02:50:41;;;;;;;5.95;1.20;;;;;;;4.56;91.15;101190.97;5053498;28;20045;-35
2022/02/20 02:53:07;;;;;;;4.63;1.00;;;;;;;4.58;91.07;101186.25;5053454;28;20032;-35
2022/02/20 02:55:33;;;;;;;3.75;0.95;;;;;;;4.56;91.89;101185.63;5053851;28;20028;-35
2022/02/20 02:57:58;;;;;;;3.65;0.82;;;;;;;4.54;91.50;101161.69;5053509;28;20408;-36
2022/02/20 03:00:23;;;;;;;6.23;1.43;;;;;;;4.47;91.82;101152.72;5053881;28;20045;-35
2022/02/20 03:02:49;;;;;;;5.27;1.00;;;;;;;4.47;91.42;101150.03;5052151;28;20027;-36
2022/02/20 03:05:14;;;;;;;5.17;1.20;;;;;;;4.38;91.62;101160.00;5053705;28;20374;-36
2022/02/20 03:07:39;;;;;;;8.77;1.23;;;;;;;4.47;91.96;101181.34;5053064;28;20025;-36
2022/02/20 03:10:05;;;;;;;3.60;1.00;;;;;;;4.36;91.41;101172.75;5053267;28;20031;-36
2022/02/20 03:12:30;;;;;;;7.28;1.17;;;;;;;4.40;92.31;101183.94;5053045;28;20025;-36
2022/02/20 03:14:56;;;;;;;5.03;1.23;;;;;;;4.30;91.66;101162.78;5053624;28;20082;-36
2022/02/20 03:17:21;;;;;;;4.40;1.03;;;;;;;4.36;91.13;101180.78;5053059;28;20074;-36
2022/02/20 03:19:46;;;;;;;5.03;0.90;;;;;;;4.34;91.40;101177.47;5053403;28;20032;-37
2022/02/20 03:22:12;;;;;;;3.97;0.90;;;;;;;4.29;91.38;101187.03;5053162;28;20048;-36
2022/02/20 03:24:37;;;;;;;6.25;1.58;;;;;;;4.27;91.46;101178.38;5053544;28;20086;-36
2022/02/20 03:27:03;;;;;;;7.83;1.57;;;;;;;4.18;91.80;101169.56;5052829;28;20444;-35
2022/02/20 03:29:28;;;;;;;7.40;1.03;;;;;;;4.24;92.41;101174.19;5053063;28;20108;-35
2022/02/20 03:31:54;;;;;;;6.20;1.70;;;;;;;4.23;92.37;101172.53;5053494;28;20287;-36
2022/02/20 03:34:19;;;;;;;2.63;0.77;;;;;;;4.16;92.21;101152.88;5053175;28;20036;-35
2022/02/20 03:36:44;;;;;;;4.67;1.77;;;;;;;4.19;92.95;101154.34;5052812;28;20476;-36
2022/02/20 03:39:10;;;;;;;5.30;1.37;;;;;;;4.20;93.70;101151.50;5053131;28;20029;-36
2022/02/20 03:41:35;;;;;;;4.30;1.30;;;;;;;4.03;93.80;101117.84;5053003;28;20136;-36
2022/02/20 03:44:00;;;;;;;6.70;2.37;;;;;;;4.08;93.65;101137.69;5053050;28;20029;-36
2022/02/20 03:46:26;;;;;;;6.30;1.60;;;;;;;4.06;93.65;101136.22;5053542;28;20067;-36
2022/02/20 03:48:51;;;;;;;5.27;1.87;;;;;;;4.01;94.44;101134.09;5052922;28;20033;-36
2022/02/20 03:51:17;;;;;;;8.10;3.13;;;;;;;3.91;94.60;101112.13;5053683;28;20025;-37
2022/02/20 03:53:42;;;;;;;5.37;2.27;;;;;;;3.98;94.75;101123.75;5052900;28;20029;-36
2022/02/20 03:56:08;;;;;;;4.47;2.00;;;;;;;3.95;94.28;101123.28;5052387;28;20041;-36
2022/02/20 03:58:34;;;;;;;6.78;2.40;;;;;;;3.86;94.03;101104.63;5052896;28;20028;-36
2022/02/20 04:00:59;;;;;;;4.60;1.97;;;;;;;3.97;95.10;101126.63;5052646;28;20087;-36
2022/02/20 04:03:25;;;;;;;7.07;2.67;;;;;;;3.96;94.83;101131.13;5052551;28;20025;-36
2022/02/20 04:05:50;;;;;;;7.10;2.92;;;;;;;3.91;94.91;101125.50;5053462;28;20029;-36
2022/02/20 04:08:16;;;;;;;8.00;3.03;;;;;;;3.94;95.17;101126.97;5053286;28;20450;-36
2022/02/20 04:10:41;;;;;;;4.67;3.40;;;;;;;3.77;94.86;101097.69;5052807;28;20388;-36
2022/02/20 04:13:06;;;;;;;9.07;3.87;;;;;;;3.88;95.22;101115.13;5052463;28;20040;-36
2022/02/20 04:15:32;;;;;;;8.37;3.90;;;;;;;3.97;96.47;101118.59;5053348;28;20029;-35
2022/02/20 04:17:57;;;;;;;6.93;3.60;;;;;;;3.90;95.54;101114.94;5052696;28;20376;-35
2022/02/20 04:20:23;;;;;;;7.30;4.13;;;;;;;3.85;95.88;101113.66;5052475;28;20539;-36
2022/02/20 04:22:48;;;;;;;6.50;4.03;;;;;;;3.91;96.40;101112.13;5052596;28;20024;-35
2022/02/20 04:25:14;;;;;;;8.63;4.80;;;;;;;3.87;96.25;101105.47;5051871;28;20124;-35
2022/02/20 04:27:40;;;;;;;8.73;4.40;;;;;;;3.92;96.19;101092.38;5052547;28;20272;-36
2022/02/20 04:30:07;;;;;;;12.25;5.35;;;;;;;3.91;96.17;101080.00;5052980;28;20357;-35
2022/02/20 04:32:33;;;;;;;8.68;5.40;;;;;;;3.96;95.77;101072.28;5054100;28;20029;-35
2022/02/20 04:34:59;;;;;;;10.50;5.50;;;;;;;3.97;95.38;101078.44;5056805;28;20045;-36
2022/02/20 04:37:24;;;;;;;6.68;4.82;;;;;;;3.90;95.41;101061.44;5056153;28;20063;-36
2022/02/20 04:39:50;;;;;;;8.87;5.47;;;;;;;3.95;96.36;101067.06;5056346;28;20033;-36
2022/02/20 04:42:15;;;;;;;7.60;5.03;;;;;;;3.90;95.61;101064.94;5054383;28;20041;-36
2022/02/20 04:44:40;;;;;;;7.57;5.00;;;;;;;3.92;95.71;101059.44;5056261;28;20032;-36
2022/02/20 04:47:06;;;;;;;9.40;5.40;;;;;;;3.87;96.01;101042.06;5054866;28;20474;-36
2022/02/20 04:49:31;;;;;;;6.68;4.47;;;;;;;3.84;96.09;101014.84;5055604;28;20255;-36
2022/02/20 04:51:57;;;;;;;7.40;4.77;;;;;;;3.86;96.24;101002.97;5055628;28;20407;-36
2022/02/20 04:54:22;;;;;;;8.80;5.10;;;;;;;3.91;96.58;101001.59;5055801;28;20025;-35
2022/02/20 04:56:48;;;;;;;11.30;5.77;;;;;;;3.90;96.21;101007.94;5056567;28;20031;-35
2022/02/20 04:59:14;;;;;;;10.23;5.17;;;;;;;3.96;96.94;101016.06;5056602;28;20029;-36
2022/02/20 05:01:40;;;;;;;15.48;6.20;;;;;;;3.97;97.51;101016.91;5056310;28;20425;-36
2022/02/20 05:04:06;;;;;;;7.43;5.03;;;;;;;3.99;97.65;101013.00;5055945;28;20036;-35
2022/02/20 05:06:31;;;;;;;9.65;5.07;;;;;;;3.88;97.88;100986.72;5055837;28;20130;-35
2022/02/20 05:08:57;;;;;;;9.37;5.23;;;;;;;3.99;98.43;100998.81;5056338;28;20060;-35
2022/02/20 05:11:24;;;;;;;9.25;5.18;;;;;;;4.00;99.94;101008.50;5056009;28;20040;-36
2022/02/20 05:13:51;;;;;;;10.57;5.22;;;;;;;3.92;100.00;100973.81;5055114;28;20384;-35
2022/02/20 05:16:16;;;;;;;;;;;;;;;4.10;99.53;100987.66;5055587;28;20036;-35
2022/02/20 05:18:41;;;;;;;11.65;5.00;;;;;;;4.00;100.00;100971.03;5055361;28;20357;-35
2022/02/20 05:21:07;;;;;;;11.83;4.83;;;;;;;4.09;100.00;100970.75;5055144;28;20087;-36
2022/02/20 05:23:33;;;;;;;9.05;4.65;;;;;;;4.09;100.00;100964.56;5055248;28;20322;-36
2022/02/20 05:26:00;;;;;;;10.98;4.35;;;;;;;4.06;100.00;100946.22;5056091;28;20029;-36
2022/02/20 05:28:25;;;;;;;8.32;4.72;;;;;;;4.19;100.00;100943.69;5055091;28;20025;-35
2022/02/20 05:30:51;;;;;;;13.20;4.83;;;;;;;4.15;100.00;100942.44;5055610;28;20112;-35
2022/02/20 05:33:16;;;;;;;12.20;4.70;;;;;;;4.24;100.00;100935.94;5055242;28;20032;-35
2022/02/20 05:35:42;;;;;;;14.70;5.60;;;;;;;4.22;100.00;100911.22;5055837;28;20025;-36
2022/02/20 05:38:07;;;;;;;11.50;4.97;;;;;;;4.35;100.00;100910.56;5054709;28;20029;-36
2022/02/20 05:40:33;;;;;;;11.23;4.60;;;;;;;4.38;100.00;100891.41;5054971;28;20279;-35
2022/02/20 05:42:59;;;;;;;;;;;;;;;4.36;100.00;100874.72;5055157;28;20110;-35
2022/02/20 05:45:25;;;;;;;15.30;5.20;;;;;;;4.37;100.00;100865.66;5052613;28;19913;-36
2022/02/20 05:47:51;;;;;;;20.20;5.78;;;;;;;4.36;100.00;100842.59;5054573;28;20529;-36
2022/02/20 05:50:16;;;;;;;16.10;5.45;;;;;;;4.17;100.00;100811.91;5054919;28;20111;-35
2022/02/20 05:52:42;;;;;;;16.60;5.03;;;;;;;4.38;100.00;100844.06;5054470;28;20174;-36
2022/02/20 05:55:08;;;;;;;19.13;5.60;;;;;;;4.34;100.00;100818.69;5054737;28;20385;-36
2022/02/20 05:57:49;;;;;;;14.00;4.75;;;;;;;4.18;100.00;100773.44;5054509;28;20037;-36
2022/02/20 06:00:20;;;;;;;18.98;5.35;;;;;;;4.24;100.00;100783.34;5054852;28;20040;-36
2022/02/20 06:02:45;;;;;;;15.65;5.35;;;;;;;4.46;100.00;100804.78;5054738;28;20029;-35
2022/02/20 06:05:11;;;;;;;14.70;5.57;;;;;;;4.51;100.00;100802.38;5054465;28;20087;-36
2022/02/20 06:07:38;;;;;;;18.60;5.55;;;;;;;4.56;100.00;100810.66;5054434;28;20035;-35
2022/02/20 06:10:05;;;;;;;15.55;4.70;;;;;;;4.58;100.00;100797.88;5054261;28;20021;-35
2022/02/20 06:12:31;;;;;;;21.70;5.47;;;;;;;4.61;100.00;100797.50;5053955;28;20029;-36
2022/02/20 06:14:57;;;;;;;17.73;5.32;;;;;;;4.61;100.00;100792.16;5054366;28;20029;-35
2022/02/20 06:17:22;;;;;;;15.13;5.38;;;;;;;4.68;100.00;100801.06;5053675;28;20036;-36
2022/02/20 06:19:48;;;;;;;15.52;5.03;;;;;;;4.52;100.00;100755.81;5054500;28;20112;-36
2022/02/20 06:22:13;;;;;;;19.83;4.47;;;;;;;4.73;100.00;100790.59;5054125;28;20029;-36
2022/02/20 06:24:38;;;;;;;16.60;4.77;;;;;;;4.75;100.00;100787.75;5054425;28;20028;-36
2022/02/20 06:27:05;;;;;;;23.17;5.10;;;;;;;4.85;100.00;100791.72;5054058;28;20024;-37
2022/02/20 06:29:30;;;;;;;;;;;;;;;4.93;100.00;100792.59;5054670;28;20035;-36
2022/02/20 06:31:56;;;;;;;16.88;4.38;;;;;;;4.99;100.00;100784.63;5053891;28;19913;-39
2022/02/20 06:34:21;;;;;;;22.70;5.23;;;;;;;5.06;100.00;100780.13;5053429;28;20029;-36
2022/02/20 06:36:47;;;;;;;24.73;4.90;;;;;;;5.08;100.00;100790.66;5053876;28;20033;-36
2022/02/20 06:39:12;;;;;;;22.80;4.40;;;;;;;5.04;100.00;100762.59;5054439;28;20029;-36
2022/02/20 06:41:37;;;;;;;21.67;5.67;;;;;;;5.30;100.00;100781.50;5054311;28;20029;-36
2022/02/20 06:44:05;;;;;;;21.37;5.20;;;;;;;5.27;100.00;100760.47;5054532;28;20100;-36
2022/02/20 06:46:30;;;;;;;20.88;4.35;;;;;;;5.40;100.00;100765.88;5054175;28;20024;-36
2022/02/20 06:48:56;;;;;;;22.63;4.90;;;;;;;5.52;100.00;100786.78;5053644;28;20025;-36
2022/02/20 06:51:21;;;;;;;19.53;4.43;;;;;;;5.53;100.00;100766.97;5053587;28;20032;-36
2022/02/20 06:53:47;;;;;;;24.10;5.90;;;;;;;5.65;100.00;100758.16;5053255;28;20040;-37
2022/02/20 06:56:13;;;;;;;16.88;4.50;;;;;;;5.83;100.00;100770.19;5052855;28;20037;-35
2022/02/20 06:58:38;;;;;;;20.67;4.10;;;;;;;5.90;100.00;100773.72;5053240;28;20033;-36
2022/02/20 07:01:04;;;;;;;19.77;4.70;;;;;;;5.94;100.00;100769.63;5053785;28;20049;-36
2022/02/20 07:03:29;;;;;;;20.10;4.95;;;;;;;6.05;100.00;100768.19;5053473;28;20384;-36
2022/02/20 07:05:55;;;;;;;13.53;3.63;;;;;;;6.14;100.00;100778.56;5053887;28;20082;-36
2022/02/20 07:08:20;;;;;;;15.70;4.30;;;;;;;6.19;100.00;100776.06;5053028;28;20032;-35
2022/02/20 07:10:45;;;;;;;17.27;3.67;;;;;;;6.26;100.00;100784.16;5053828;28;20064;-35
2022/02/20 07:13:11;;;;;;;18.37;3.80;;;;;;;6.31;100.00;100770.94;5053259;28;20040;-35
2022/02/20 07:15:36;;;;;;;12.73;3.00;;;;;;;6.36;100.00;100773.84;5053013;28;20020;-35
2022/02/20 07:18:01;;;;;;;14.57;4.00;;;;;;;6.50;100.00;100771.19;5053192;28;20059;-35
2022/02/20 07:20:27;;;;;;;16.73;3.70;;;;;;;6.55;100.00;100779.44;5052003;28;20488;-35
2022/02/20 07:22:52;;;;;;;11.10;4.10;;;;;;;6.63;100.00;100781.91;5051642;28;20116;-35
2022/02/20 07:25:19;;;;;;;13.90;4.20;;;;;;;6.72;100.00;100775.31;5053942;28;20091;-35
2022/02/20 07:27:45;;;;;;;17.58;4.75;;;;;;;6.68;100.00;100769.50;5053049;28;20044;-35
2022/02/20 07:30:13;;;;;;;11.68;3.78;;;;;;;6.79;100.00;100781.53;5053533;28;20021;-36
2022/02/20 07:32:38;;;;;;;12.00;4.60;;;;;;;6.84;100.00;100760.22;5053528;28;20103;-36
2022/02/20 07:35:05;;;;;;;7.47;3.47;;;;;;;6.89;100.00;100762.28;5053095;28;20422;-36
2022/02/20 07:37:31;;;;;;;15.57;5.35;;;;;;;6.90;100.00;100762.06;5053437;28;20060;-36
2022/02/20 07:39:57;;;;;;;11.07;4.40;;;;;;;7.00;100.00;100761.63;5053288;28;20029;-35
2022/02/20 07:42:22;;;;;;;13.18;4.60;;;;;;;7.01;100.00;100768.66;5052883;28;20035;-36
2022/02/20 07:44:47;;;;;;;12.07;4.43;;;;;;;7.04;100.00;100760.19;5053556;28;20519;-35
2022/02/20 07:47:13;;;;;;;11.60;4.37;;;;;;;7.09;100.00;100770.31;5052549;28;20024;-36
2022/02/20 07:49:38;;;;;;;12.30;4.30;;;;;;;7.05;100.00;100747.56;5052898;28;20025;-36
2022/02/20 07:52:04;;;;;;;10.33;3.93;;;;;;;7.12;100.00;100754.56;5052715;28;20033;-35
2022/02/20 07:54:29;;;;;;;7.05;4.47;;;;;;;7.08;100.00;100741.78;5052966;28;20060;-36
2022/02/20 07:56:55;;;;;;;9.77;4.15;;;;;;;7.18;100.00;100740.31;5053343;28;20025;-36
2022/02/20 07:59:20;;;;;;;8.43;4.23;;;;;;;7.19;100.00;100733.88;5052919;28;20040;-36
2022/02/20 08:01:48;;;;;;;10.53;4.90;;;;;;;7.25;100.00;100748.34;5052634;28;20048;-35
2022/02/20 08:04:13;;;;;;;12.50;5.38;;;;;;;7.28;100.00;100744.41;5068209;28;20021;-35
2022/02/20 08:06:39;;;;;;;14.50;4.85;;;;;;;7.30;100.00;100736.94;5052684;28;20094;-36
2022/02/20 08:09:05;;;;;;;12.90;5.10;;;;;;;7.30;100.00;100740.47;5056923;28;20025;-35
2022/02/20 08:11:31;;;;;;;8.90;4.28;;;;;;;7.34;100.00;100739.00;5056309;28;20091;-36
2022/02/20 08:13:57;;;;;;;13.85;4.97;;;;;;;7.36;100.00;100736.09;5056568;28;20413;-35
2022/02/20 08:16:23;;;;;;;8.60;4.60;;;;;;;7.23;100.00;100699.31;5056972;28;20078;-36
2022/02/20 08:18:48;;;;;;;9.70;4.47;;;;;;;7.33;100.00;100725.78;5056032;28;20078;-35
2022/02/20 08:21:13;;;;;;;7.33;3.57;;;;;;;7.34;100.00;100724.72;5056685;28;20107;-35
2022/02/20 08:23:39;;;;;;;7.77;4.03;;;;;;;7.42;100.00;100733.41;5056557;28;20051;-36
2022/02/20 08:26:05;;;;;;;8.90;3.97;;;;;;;7.47;100.00;100724.69;5056582;28;20079;-35
2022/02/20 08:28:30;;;;;;;8.77;3.78;;;;;;;7.49;100.00;100725.28;5055926;28;20386;-36
2022/02/20 08:30:55;;;;;;;10.43;4.43;;;;;;;7.46;100.00;100707.69;5056117;28;20035;-35
2022/02/20 08:33:21;;;;;;;6.63;3.70;;;;;;;7.57;100.00;100726.91;5055855;28;20055;-36
2022/02/20 08:35:46;;;;;;;8.90;4.23;;;;;;;7.62;100.00;100721.72;5056413;28;20084;-36
2022/02/20 08:38:11;;;;;;;9.60;4.27;;;;;;;7.64;100.00;100719.63;5056016;28;20457;-36
2022/02/20 08:40:39;;;;;;;8.70;4.10;;;;;;;7.65;100.00;100732.03;5056546;28;20079;-36
2022/02/20 08:43:05;;;;;;;9.63;4.18;;;;;;;7.66;100.00;100731.84;5055571;28;20539;-36
2022/02/20 08:45:30;;;;;;;10.32;3.97;;;;;;;7.67;100.00;100730.81;5056441;28;20028;-36
2022/02/20 08:47:56;;;;;;;8.03;3.53;;;;;;;7.61;100.00;100726.28;5054138;28;20037;-36
2022/02/20 08:50:21;;;;;;;9.33;4.50;;;;;;;7.69;100.00;100719.81;5055803;28;20388;-36
2022/02/20 08:52:49;;;;;;;10.47;4.20;;;;;;;7.68;100.00;100726.25;5056028;28;20033;-35
2022/02/20 08:55:15;;;;;;;9.80;4.43;;;;;;;7.78;100.00;100736.53;5054663;28;20017;-36
2022/02/20 08:57:43;;;;;;;7.38;3.90;;;;;;;7.72;100.00;100711.31;5055679;28;20112;-35
2022/02/20 09:00:09;;;;;;;11.80;4.28;;;;;;;7.82;100.00;100714.38;5056095;28;20076;-35
2022/02/20 09:02:34;;;;;;;9.38;4.53;;;;;;;7.85;100.00;100715.78;5056147;28;20033;-35
2022/02/20 09:05:00;;;;;;;9.93;4.83;;;;;;;7.88;100.00;100688.44;5055652;28;20025;-36
2022/02/20 09:07:25;;;;;;;8.03;4.37;;;;;;;7.83;100.00;100670.25;5055975;28;20318;-35
2022/02/20 09:09:51;;;;;;;11.10;4.80;;;;;;;7.96;100.00;100690.88;5055379;28;20029;-36
2022/02/20 09:12:16;;;;;;;12.73;5.37;;;;;;;8.02;100.00;100694.56;5055046;28;20029;-36
2022/02/20 09:14:41;;;;;;;14.80;5.43;;;;;;;8.05;100.00;100700.31;5055904;28;20321;-36
2022/02/20 09:17:07;;;;;;;13.00;5.60;;;;;;;8.03;100.00;100688.13;5055011;28;20029;-36
2022/02/20 09:19:32;;;;;;;12.07;5.75;;;;;;;8.02;100.00;100679.22;5055003;28;20244;-36
2022/02/20 09:21:58;;;;;;;14.95;4.97;;;;;;;8.17;100.00;100706.66;5055217;28;20033;-37
2022/02/20 09:24:23;;;;;;;16.73;6.50;;;;;;;8.22;100.00;100698.75;5056115;28;20060;-36
2022/02/20 09:26:52;;;;;;;12.67;5.30;;;;;;;8.26;100.00;100694.59;5055146;28;20032;-36
2022/02/20 09:29:18;;;;;;;15.23;5.85;;;;;;;8.24;100.00;100691.28;5055584;28;20409;-35
2022/02/20 09:31:44;;;;;;;;;;;;;;;8.37;100.00;100713.81;5055633;28;20025;-36
2022/02/20 09:34:09;;;;;;;13.27;5.03;;;;;;;8.41;100.00;100710.47;5055084;28;19912;-37
2022/02/20 09:36:35;;;;;;;11.48;5.03;;;;;;;8.45;100.00;100697.38;5055789;28;20051;-36
2022/02/20 09:39:00;;;;;;;16.87;5.27;;;;;;;8.51;100.00;100693.78;5054974;28;20445;-36
2022/02/20 09:41:29;;;;;;;16.95;4.75;;;;;;;8.54;100.00;100687.97;5054874;28;20110;-36
2022/02/20 09:43:56;;;;;;;19.88;6.00;;;;;;;8.59;100.00;100677.34;5054526;28;20052;-36
2022/02/20 09:46:21;;;;;;;18.33;5.13;;;;;;;8.65;100.00;100679.16;5054478;28;20041;-36
2022/02/20 09:48:50;;;;;;;17.10;6.32;;;;;;;8.66;100.00;100663.78;5054358;28;20075;-35
2022/02/20 09:51:16;;;;;;;13.85;4.57;;;;;;;8.78;100.00;100678.16;5054640;28;20040;-36
2022/02/20 09:53:41;;;;;;;16.13;4.55;;;;;;;8.80;100.00;100686.06;5054310;28;20028;-35
2022/02/20 09:56:07;;;;;;;17.17;4.80;;;;;;;8.83;100.00;100697.19;5054873;28;20041;-36
2022/02/20 09:58:32;;;;;;;15.70;5.13;;;;;;;8.83;100.00;100688.28;5054233;28;20461;-36
2022/02/20 10:01:06;;;;;;;22.87;6.10;;;;;;;8.84;100.00;100682.69;5055216;28;20080;-36
2022/02/20 10:03:34;;;;;;;15.93;4.30;;;;;;;8.82;100.00;100684.78;5054630;28;20041;-36
2022/02/20 10:06:01;;;;;;;13.75;4.40;;;;;;;8.69;100.00;100653.41;5054893;28;20094;-36
2022/02/20 10:08:40;;;;;;;12.65;3.83;;;;;;;8.84;100.00;100677.31;5054280;28;20057;-36
2022/02/20 10:11:14;;;;;;;13.13;3.78;;;;;;;8.85;100.00;100657.38;5054939;28;20029;-36
2022/02/20 10:13:39;;;;;;;15.32;4.75;;;;;;;8.87;100.00;100660.66;5054470;28;20025;-35
2022/02/20 10:16:25;;;;;;;16.87;5.00;;;;;;;8.85;100.00;100654.69;5055043;28;20420;-36
2022/02/20 10:18:52;;;;;;;18.73;4.57;;;;;;;8.76;100.00;100645.22;5054137;28;20134;-36
2022/02/20 10:21:29;;;;;;;16.90;4.70;;;;;;;8.91;100.00;100666.44;5053805;28;20032;-36
2022/02/20 10:24:03;;;;;;;;;;;;;;;8.92;100.00;100666.19;5054353;28;20025;-36
2022/02/20 10:26:29;;;;;;;18.52;4.60;;;;;;;8.91;100.00;100664.56;5054279;28;19909;-41
2022/02/20 10:29:16;;;;;;;19.35;4.88;;;;;;;8.93;100.00;100665.19;5054077;28;20135;-36
2022/02/20 10:31:42;;;;;;;;;;;;;;;8.95;100.00;100670.34;5053748;28;20493;-36
2022/02/20 10:34:15;;;;;;;18.98;4.75;;;;;;;8.94;100.00;100660.59;5054170;28;19916;-36
2022/02/20 10:36:54;;;;;;;17.80;4.80;;;;;;;8.93;100.00;100665.19;5053788;28;20072;-35
2022/02/20 10:39:21;;;;;;;23.60;5.70;;;;;;;8.94;100.00;100674.91;5054170;28;20041;-37
2022/02/20 10:41:47;;;;;;;19.25;5.35;;;;;;;8.94;100.00;100676.78;5054365;28;20021;-35
2022/02/20 10:44:13;;;;;;;23.65;5.95;;;;;;;8.95;100.00;100668.47;5053594;28;20047;-36
2022/02/20 10:46:39;;;;;;;23.13;5.53;;;;;;;8.97;100.00;100673.63;5053987;28;20083;-36
2022/02/20 10:49:05;;;;;;;21.45;5.75;;;;;;;8.97;100.00;100682.53;5053335;28;20029;-36
2022/02/20 10:51:38;;;;;;;19.65;4.68;;;;;;;8.99;100.00;100679.63;5053437;28;20386;-36
2022/02/20 10:54:03;;;;;;;21.48;4.88;;;;;;;9.00;100.00;100682.09;5053703;28;20466;-36
2022/02/20 10:56:43;;;;;;;18.27;4.97;;;;;;;9.02;100.00;100690.78;5053798;28;20025;-36
2022/02/20 10:59:10;;;;;;;23.88;6.25;;;;;;;8.97;100.00;100670.94;5052138;28;20029;-36
2022/02/20 11:01:35;;;;;;;20.17;4.50;;;;;;;8.98;100.00;100672.59;5053741;28;20096;-35
2022/02/20 11:04:13;;;;;;;17.52;5.05;;;;;;;9.08;100.00;100682.81;5053080;28;20056;-36
2022/02/20 11:06:39;;;;;;;15.90;4.60;;;;;;;9.07;100.00;100675.78;5054055;28;20036;-37
2022/02/20 11:09:06;;;;;;;25.92;5.50;;;;;;;9.05;100.00;100688.69;5053622;28;20036;-37
2022/02/20 11:11:39;;;;;;;20.08;4.50;;;;;;;9.06;100.00;100684.94;5053203;28;20033;-36
2022/02/20 11:14:12;;;;;;;21.15;5.22;;;;;;;9.07;100.00;100676.63;5053731;28;20033;-36
2022/02/20 11:16:56;;;;;;;26.92;5.50;;;;;;;8.99;100.00;100660.75;5053437;28;20029;-35
2022/02/20 11:19:23;;;;;;;21.65;5.32;;;;;;;8.99;100.00;100658.88;5068692;28;20032;-35
2022/02/20 11:21:54;;;;;;;18.58;5.90;;;;;;;9.05;100.00;100667.94;5053035;28;20401;-36